Time,TemperatureF,DewpointF,PressureIn,WindDirection,WindDirectionDegrees,WindSpeedMPH,WindSpeedGustMPH,Humidity,HourlyPrecipIn,Conditions,Clouds,dailyrainin,SoftwareType,DateUTC
2014-01-12 00:00:00,34.9,30.0,30.42,West,275,7.6,8.3,82,0.00,,,0.00,meteobridge,2014-01-12 05:00:00,
2014-01-12 00:01:00,34.9,30.0,30.42,SW,230,3.6,7.6,82,0.00,,,0.00,meteobridge,2014-01-12 05:01:00,
2014-01-12 00:02:00,34.9,30.0,30.42,WSW,253,3.6,7.6,82,0.00,,,0.00,meteobridge,2014-01-12 05:02:00,
2014-01-12 00:04:00,34.9,30.0,30.42,SW,223,3.1,8.1,82,0.00,,,0.00,meteobridge,2014-01-12 05:04:00,
2014-01-12 00:09:00,34.9,30.0,30.42,WSW,255,10.5,10.5,82,0.00,,,0.00,meteobridge,2014-01-12 05:09:00,
2014-01-12 00:14:00,35.1,30.2,30.42,West,269,5.8,7.6,82,0.00,,,0.00,meteobridge,2014-01-12 05:14:00,
2014-01-12 00:19:00,35.1,30.2,30.42,West,279,8.3,8.7,82,0.00,,,0.00,meteobridge,2014-01-12 05:19:00,
2014-01-12 00:24:00,35.1,30.2,30.42,West,274,7.6,8.1,82,0.00,,,0.00,meteobridge,2014-01-12 05:24:00,
2014-01-12 00:29:00,35.1,30.2,30.45,WNW,291,8.7,8.7,82,0.00,,,0.00,meteobridge,2014-01-12 05:29:00,
2014-01-12 00:34:00,35.1,29.8,30.45,WSW,256,8.7,10.1,81,0.00,,,0.00,meteobridge,2014-01-12 05:34:00,
2014-01-12 00:39:00,35.1,29.8,30.45,West,280,11.0,11.0,81,0.00,,,0.00,meteobridge,2014-01-12 05:39:00,
2014-01-12 00:44:00,35.2,30.0,30.48,WNW,283,10.5,11.0,81,0.00,,,0.00,meteobridge,2014-01-12 05:44:00,
2014-01-12 00:50:00,35.2,30.0,30.48,NW,317,8.3,11.0,81,0.00,,,0.00,meteobridge,2014-01-12 05:50:00,
2014-01-12 00:55:00,35.2,30.0,30.48,WSW,252,10.1,15.0,81,0.00,,,0.00,meteobridge,2014-01-12 05:55:00,
2014-01-12 01:00:00,35.2,29.7,30.51,West,265,13.2,15.9,80,0.00,,,0.00,meteobridge,2014-01-12 06:00:00,
2014-01-12 01:04:00,35.2,29.7,30.51,WSW,251,11.0,15.0,80,0.00,,,0.00,meteobridge,2014-01-12 06:04:00,
2014-01-12 01:09:00,35.2,29.3,30.51,West,273,5.4,13.2,79,0.00,,,0.00,meteobridge,2014-01-12 06:09:00,
2014-01-12 01:14:00,35.2,29.3,30.54,WNW,291,13.2,13.2,79,0.00,,,0.00,meteobridge,2014-01-12 06:14:00,
2014-01-12 01:19:00,35.2,29.1,30.54,NW,317,13.2,16.3,78,0.00,,,0.00,meteobridge,2014-01-12 06:19:00,
2014-01-12 01:24:00,35.1,28.9,30.54,West,271,12.8,17.4,78,0.00,,,0.00,meteobridge,2014-01-12 06:24:00,
2014-01-12 01:30:00,35.1,28.6,30.57,West,281,12.3,12.3,77,0.00,,,0.00,meteobridge,2014-01-12 06:30:00,
2014-01-12 01:35:00,35.1,28.6,30.57,NW,316,6.3,13.2,77,0.00,,,0.00,meteobridge,2014-01-12 06:35:00,
2014-01-12 01:40:00,34.9,28.0,30.57,West,280,12.8,12.8,76,0.00,,,0.00,meteobridge,2014-01-12 06:40:00,
2014-01-12 01:45:00,34.9,28.0,30.60,West,281,11.0,12.8,76,0.00,,,0.00,meteobridge,2014-01-12 06:45:00,
2014-01-12 01:50:00,34.9,28.0,30.60,West,273,7.6,9.6,76,0.00,,,0.00,meteobridge,2014-01-12 06:50:00,
2014-01-12 01:55:00,34.9,28.0,30.60,West,264,5.4,11.0,76,0.00,,,0.00,meteobridge,2014-01-12 06:55:00,
2014-01-12 02:00:00,34.7,27.7,30.66,NW,313,5.4,12.8,75,0.00,,,0.00,meteobridge,2014-01-12 07:00:00,
2014-01-12 02:05:00,34.7,27.7,30.66,West,275,10.1,10.1,75,0.00,,,0.00,meteobridge,2014-01-12 07:05:00,
2014-01-12 02:10:00,34.7,27.7,30.66,West,276,8.1,13.2,75,0.00,,,0.00,meteobridge,2014-01-12 07:10:00,
2014-01-12 02:15:00,34.7,27.7,30.71,NW,306,7.6,8.7,75,0.00,,,0.00,meteobridge,2014-01-12 07:15:00,
2014-01-12 02:20:00,34.5,27.5,30.71,West,271,6.3,13.6,75,0.00,,,0.00,meteobridge,2014-01-12 07:20:00,
2014-01-12 02:25:00,34.3,27.3,30.71,NW,312,9.6,12.8,75,0.00,,,0.00,meteobridge,2014-01-12 07:25:00,
2014-01-12 02:30:00,34.2,27.1,30.74,NW,316,11.4,15.4,75,0.00,,,0.00,meteobridge,2014-01-12 07:30:00,
2014-01-12 02:35:00,34.2,27.1,30.74,NW,313,8.1,12.8,75,0.00,,,0.00,meteobridge,2014-01-12 07:35:00,
2014-01-12 02:40:00,34.0,27.0,30.74,NW,304,3.1,12.3,75,0.00,,,0.00,meteobridge,2014-01-12 07:40:00,
2014-01-12 02:45:00,34.0,27.0,30.77,NW,310,4.0,8.7,75,0.00,,,0.00,meteobridge,2014-01-12 07:45:00,
2014-01-12 02:51:00,34.0,27.0,30.77,WNW,299,8.3,10.5,75,0.00,,,0.00,meteobridge,2014-01-12 07:51:00,
2014-01-12 02:56:00,34.0,27.0,30.77,NW,322,8.1,8.1,75,0.00,,,0.00,meteobridge,2014-01-12 07:56:00,
2014-01-12 03:01:00,33.8,26.8,30.77,NW,318,5.8,11.0,75,0.00,,,0.00,meteobridge,2014-01-12 08:01:00,
2014-01-12 03:06:00,33.8,26.8,30.77,NW,309,7.6,11.0,75,0.00,,,0.00,meteobridge,2014-01-12 08:06:00,
2014-01-12 03:11:00,33.6,26.6,30.77,NNW,343,8.1,8.1,75,0.00,,,0.00,meteobridge,2014-01-12 08:11:00,
2014-01-12 03:16:00,33.6,26.8,30.68,NNW,328,5.8,8.3,76,0.00,,,0.00,meteobridge,2014-01-12 08:16:00,
2014-01-12 03:21:00,33.6,26.8,30.68,NW,307,8.7,8.7,76,0.00,,,0.00,meteobridge,2014-01-12 08:21:00,
2014-01-12 03:26:00,33.4,26.8,30.68,NW,313,5.8,5.8,76,0.00,,,0.00,meteobridge,2014-01-12 08:26:00,
2014-01-12 03:31:00,33.4,26.8,30.68,NNW,338,8.7,8.7,76,0.00,,,0.00,meteobridge,2014-01-12 08:31:00,
2014-01-12 03:36:00,33.4,26.8,30.68,WNW,303,4.0,8.1,76,0.00,,,0.00,meteobridge,2014-01-12 08:36:00,
2014-01-12 03:41:00,33.3,26.6,30.68,NW,313,5.8,7.6,76,0.00,,,0.00,meteobridge,2014-01-12 08:41:00,
2014-01-12 03:46:00,33.3,26.6,30.68,NW,318,3.6,5.8,76,0.00,,,0.00,meteobridge,2014-01-12 08:46:00,
2014-01-12 03:51:00,33.3,26.6,30.68,NW,326,5.8,5.8,76,0.00,,,0.00,meteobridge,2014-01-12 08:51:00,
2014-01-12 03:56:00,33.3,26.6,30.68,NW,314,6.3,6.7,76,0.00,,,0.00,meteobridge,2014-01-12 08:56:00,
2014-01-12 04:01:00,33.3,26.2,30.71,NW,320,3.1,4.9,75,0.00,,,0.00,meteobridge,2014-01-12 09:01:00,
2014-01-12 04:06:00,33.3,26.2,30.71,WNW,286,5.8,7.6,75,0.00,,,0.00,meteobridge,2014-01-12 09:06:00,
2014-01-12 04:12:00,33.3,26.2,30.71,NNW,338,3.1,6.3,75,0.00,,,0.00,meteobridge,2014-01-12 09:12:00,
2014-01-12 04:17:00,33.1,26.1,30.71,NW,314,3.6,6.3,75,0.00,,,0.00,meteobridge,2014-01-12 09:17:00,
2014-01-12 04:22:00,33.1,26.1,30.71,NW,320,8.7,8.7,75,0.00,,,0.00,meteobridge,2014-01-12 09:22:00,
2014-01-12 04:27:00,33.1,26.1,30.71,WNW,298,6.3,7.6,75,0.00,,,0.00,meteobridge,2014-01-12 09:27:00,
2014-01-12 04:32:00,33.1,26.1,30.77,West,267,3.6,5.4,75,0.00,,,0.00,meteobridge,2014-01-12 09:32:00,
2014-01-12 04:37:00,33.3,26.2,30.77,West,267,8.7,8.7,75,0.00,,,0.00,meteobridge,2014-01-12 09:37:00,
2014-01-12 04:42:00,33.3,26.2,30.77,NW,304,5.8,5.8,75,0.00,,,0.00,meteobridge,2014-01-12 09:42:00,
2014-01-12 04:47:00,33.3,26.2,30.80,West,274,5.4,6.3,75,0.00,,,0.00,meteobridge,2014-01-12 09:47:00,
2014-01-12 04:52:00,33.1,26.1,30.80,WNW,293,6.3,8.1,75,0.00,,,0.00,meteobridge,2014-01-12 09:52:00,
2014-01-12 04:57:00,33.1,26.1,30.80,West,275,7.6,7.6,75,0.00,,,0.00,meteobridge,2014-01-12 09:57:00,
2014-01-12 05:02:00,33.1,26.1,30.86,West,270,3.1,8.1,75,0.00,,,0.00,meteobridge,2014-01-12 10:02:00,
2014-01-12 05:07:00,33.1,25.7,30.86,WNW,290,5.8,7.6,74,0.00,,,0.00,meteobridge,2014-01-12 10:07:00,
2014-01-12 05:12:00,32.9,25.5,30.86,WNW,294,7.6,8.3,74,0.00,,,0.00,meteobridge,2014-01-12 10:12:00,
2014-01-12 05:18:00,32.9,25.5,30.89,West,267,10.1,11.0,74,0.00,,,0.00,meteobridge,2014-01-12 10:18:00,
2014-01-12 05:23:00,32.9,25.5,30.89,West,278,5.4,8.7,74,0.00,,,0.00,meteobridge,2014-01-12 10:23:00,
2014-01-12 05:28:00,32.9,25.5,30.89,WNW,294,4.9,7.6,74,0.00,,,0.00,meteobridge,2014-01-12 10:28:00,
2014-01-12 05:33:00,32.7,25.3,30.92,WNW,282,5.8,5.8,74,0.00,,,0.00,meteobridge,2014-01-12 10:33:00,
2014-01-12 05:38:00,32.7,25.3,30.92,NNW,330,3.6,6.3,74,0.00,,,0.00,meteobridge,2014-01-12 10:38:00,
2014-01-12 05:43:00,32.7,25.3,30.92,WNW,297,2.2,5.8,74,0.00,,,0.00,meteobridge,2014-01-12 10:43:00,
2014-01-12 05:48:00,32.7,25.3,30.98,NNW,327,7.6,7.6,74,0.00,,,0.00,meteobridge,2014-01-12 10:48:00,
2014-01-12 05:53:00,32.7,25.3,30.98,WNW,302,5.4,6.3,74,0.00,,,0.00,meteobridge,2014-01-12 10:53:00,
2014-01-12 05:58:00,32.7,25.3,30.98,WNW,287,6.3,6.3,74,0.00,,,0.00,meteobridge,2014-01-12 10:58:00,
2014-01-12 06:03:00,32.7,25.7,31.04,West,268,6.3,6.3,75,0.00,,,0.00,meteobridge,2014-01-12 11:03:00,
2014-01-12 06:08:00,32.7,25.7,31.04,WNW,292,5.8,6.3,75,0.00,,,0.00,meteobridge,2014-01-12 11:08:00,
2014-01-12 06:13:00,32.7,25.7,31.04,NW,317,5.8,7.6,75,0.00,,,0.00,meteobridge,2014-01-12 11:13:00,
2014-01-12 06:18:00,32.5,25.5,31.01,NW,314,4.9,8.1,75,0.00,,,0.00,meteobridge,2014-01-12 11:18:00,
2014-01-12 06:23:00,32.5,25.5,31.01,WNW,290,2.7,5.8,75,0.00,,,0.00,meteobridge,2014-01-12 11:23:00,
2014-01-12 06:28:00,32.5,25.5,31.01,WNW,284,5.8,6.7,75,0.00,,,0.00,meteobridge,2014-01-12 11:28:00,
2014-01-12 06:33:00,32.7,25.7,31.07,West,275,4.0,5.8,75,0.00,,,0.00,meteobridge,2014-01-12 11:33:00,
2014-01-12 06:38:00,32.7,25.7,31.07,West,263,4.0,4.0,75,0.00,,,0.00,meteobridge,2014-01-12 11:38:00,
2014-01-12 06:43:00,32.7,25.7,31.07,West,274,4.0,6.3,75,0.00,,,0.00,meteobridge,2014-01-12 11:43:00,
2014-01-12 06:49:00,32.7,26.1,31.19,West,280,3.1,4.9,76,0.00,,,0.00,meteobridge,2014-01-12 11:49:00,
2014-01-12 06:54:00,32.7,26.1,31.19,West,272,3.6,5.4,76,0.00,,,0.00,meteobridge,2014-01-12 11:54:00,
2014-01-12 06:59:00,32.7,26.1,31.19,West,270,4.9,4.9,76,0.00,,,0.00,meteobridge,2014-01-12 11:59:00,
2014-01-12 07:04:00,32.7,26.1,31.28,WNW,288,2.7,3.6,76,0.00,,,0.00,meteobridge,2014-01-12 12:04:00,
2014-01-12 07:09:00,32.7,26.1,31.28,West,266,0.0,4.0,76,0.00,,,0.00,meteobridge,2014-01-12 12:09:00,
2014-01-12 07:14:00,32.9,26.2,31.33,WSW,253,4.9,4.9,76,0.00,,,0.00,meteobridge,2014-01-12 12:14:00,
2014-01-12 07:19:00,32.9,26.2,31.33,SW,224,2.2,3.1,76,0.00,,,0.00,meteobridge,2014-01-12 12:19:00,
2014-01-12 07:24:00,32.9,26.2,31.33,SW,216,3.1,3.1,76,0.00,,,0.00,meteobridge,2014-01-12 12:24:00,
2014-01-12 07:29:00,32.9,26.4,31.28,SW,226,7.6,7.6,77,0.00,,,0.00,meteobridge,2014-01-12 12:29:00,
2014-01-12 07:34:00,32.9,26.4,31.28,SW,236,5.4,5.4,77,0.00,,,0.00,meteobridge,2014-01-12 12:34:00,
2014-01-12 07:39:00,32.7,26.2,31.28,SW,215,5.4,6.3,77,0.00,,,0.00,meteobridge,2014-01-12 12:39:00,
2014-01-12 07:44:00,32.7,26.2,31.13,WSW,258,6.3,6.3,77,0.00,,,0.00,meteobridge,2014-01-12 12:44:00,
2014-01-12 07:49:00,32.7,26.2,31.13,WSW,258,7.2,7.2,77,0.00,,,0.00,meteobridge,2014-01-12 12:49:00,
2014-01-12 07:54:00,32.7,26.2,31.13,WSW,239,5.4,6.3,77,0.00,,,0.00,meteobridge,2014-01-12 12:54:00,
2014-01-12 07:59:00,32.5,26.1,30.95,West,265,6.3,6.3,77,0.00,,,0.00,meteobridge,2014-01-12 12:59:00,
2014-01-12 08:05:00,32.5,26.1,30.95,WNW,290,5.4,6.3,77,0.00,,,0.00,meteobridge,2014-01-12 13:05:00,
2014-01-12 08:10:00,32.5,26.1,30.95,West,262,5.8,6.3,77,0.00,,,0.00,meteobridge,2014-01-12 13:10:00,
2014-01-12 08:15:00,32.5,26.1,30.71,West,259,2.7,3.1,77,0.00,,,0.00,meteobridge,2014-01-12 13:15:00,
2014-01-12 08:20:00,32.7,26.2,30.71,SW,225,5.4,5.4,77,0.00,,,0.00,meteobridge,2014-01-12 13:20:00,
2014-01-12 08:25:00,32.7,26.2,30.71,SW,223,4.0,5.4,77,0.00,,,0.00,meteobridge,2014-01-12 13:25:00,
2014-01-12 08:30:00,32.7,26.2,30.60,South,174,3.6,6.3,77,0.00,,,0.00,meteobridge,2014-01-12 13:30:00,
2014-01-12 08:35:00,32.7,26.2,30.60,SW,224,5.4,6.3,77,0.00,,,0.00,meteobridge,2014-01-12 13:35:00,
2014-01-12 08:40:00,32.7,26.6,30.60,SSW,204,7.6,7.6,78,0.00,,,0.00,meteobridge,2014-01-12 13:40:00,
2014-01-12 08:45:00,32.5,26.4,30.36,SSW,210,8.3,8.3,78,0.00,,,0.00,meteobridge,2014-01-12 13:45:00,
2014-01-12 08:50:00,32.5,26.4,30.36,SW,220,6.3,8.1,78,0.00,,,0.00,meteobridge,2014-01-12 13:50:00,
2014-01-12 08:55:00,32.5,26.4,30.36,SSW,210,6.3,6.3,78,0.00,,,0.00,meteobridge,2014-01-12 13:55:00,
2014-01-12 09:00:00,32.5,26.4,30.18,SW,230,7.6,7.6,78,0.00,,,0.00,meteobridge,2014-01-12 14:00:00,
2014-01-12 09:06:00,32.5,26.4,30.18,SW,220,8.1,8.7,78,0.00,,,0.00,meteobridge,2014-01-12 14:06:00,
2014-01-12 09:11:00,32.5,26.4,30.18,SW,214,5.4,5.8,78,0.00,,,0.00,meteobridge,2014-01-12 14:11:00,
2014-01-12 09:16:00,32.5,26.4,30.18,SW,219,4.0,8.1,78,0.00,,,0.00,meteobridge,2014-01-12 14:16:00,
2014-01-12 09:21:00,32.5,26.4,30.18,SW,226,5.4,10.1,78,0.00,,,0.00,meteobridge,2014-01-12 14:21:00,
2014-01-12 09:26:00,32.5,26.4,30.18,SW,220,7.6,7.6,78,0.00,,,0.00,meteobridge,2014-01-12 14:26:00,
2014-01-12 09:31:00,32.5,26.4,30.18,SW,224,5.4,8.7,78,0.00,,,0.00,meteobridge,2014-01-12 14:31:00,
2014-01-12 09:36:00,32.5,26.4,30.18,South,187,9.6,9.6,78,0.00,,,0.00,meteobridge,2014-01-12 14:36:00,
2014-01-12 09:41:00,32.5,26.1,30.18,SW,225,7.6,8.7,77,0.00,,,0.00,meteobridge,2014-01-12 14:41:00,
2014-01-12 09:46:00,32.5,26.1,30.21,SW,224,6.3,8.7,77,0.00,,,0.00,meteobridge,2014-01-12 14:46:00,
2014-01-12 09:51:00,32.7,26.6,30.21,SW,219,8.7,8.7,78,0.00,,,0.00,meteobridge,2014-01-12 14:51:00,
2014-01-12 09:56:00,32.7,26.6,30.21,SSW,201,4.0,8.7,78,0.00,,,0.00,meteobridge,2014-01-12 14:56:00,
2014-01-12 10:01:00,32.9,26.8,30.30,SW,235,6.3,7.6,78,0.00,,,0.00,meteobridge,2014-01-12 15:01:00,
2014-01-12 10:06:00,32.9,26.8,30.30,SW,224,5.8,8.3,78,0.00,,,0.00,meteobridge,2014-01-12 15:06:00,
2014-01-12 10:11:00,33.1,27.0,30.30,SW,219,5.4,7.6,78,0.00,,,0.00,meteobridge,2014-01-12 15:11:00,
2014-01-12 10:16:00,33.1,27.0,30.24,SSW,210,4.0,7.6,78,0.00,,,0.00,meteobridge,2014-01-12 15:16:00,
2014-01-12 10:22:00,33.3,27.1,30.24,SW,224,4.5,10.5,78,0.00,,,0.00,meteobridge,2014-01-12 15:22:00,
2014-01-12 10:27:00,33.3,26.8,30.24,SSW,212,6.3,10.1,77,0.00,,,0.00,meteobridge,2014-01-12 15:27:00,
2014-01-12 10:32:00,33.3,26.8,30.18,SSW,195,8.3,10.5,77,0.00,,,0.00,meteobridge,2014-01-12 15:32:00,
2014-01-12 10:37:00,33.4,27.0,30.18,SW,222,5.8,8.7,77,0.00,,,0.00,meteobridge,2014-01-12 15:37:00,
2014-01-12 10:42:00,33.6,27.1,30.18,SSW,198,6.3,6.3,77,0.00,,,0.00,meteobridge,2014-01-12 15:42:00,
2014-01-12 10:47:00,33.8,27.3,30.15,SSW,195,6.7,9.6,77,0.00,,,0.00,meteobridge,2014-01-12 15:47:00,
2014-01-12 10:52:00,34.0,27.5,30.15,SSW,193,4.9,7.2,77,0.00,,,0.00,meteobridge,2014-01-12 15:52:00,
2014-01-12 10:57:00,34.0,27.1,30.15,SW,233,6.3,7.6,76,0.00,,,0.00,meteobridge,2014-01-12 15:57:00,
2014-01-12 11:02:00,34.0,27.1,30.12,SSW,207,2.7,6.7,76,0.00,,,0.00,meteobridge,2014-01-12 16:02:00,
2014-01-12 11:07:00,34.3,27.5,30.12,South,186,5.8,7.6,76,0.00,,,0.00,meteobridge,2014-01-12 16:07:00,
2014-01-12 11:12:00,34.5,27.7,30.12,SSW,192,4.0,6.3,76,0.00,,,0.00,meteobridge,2014-01-12 16:12:00,
2014-01-12 11:17:00,34.9,28.0,30.09,SSW,208,8.1,8.7,76,0.00,,,0.00,meteobridge,2014-01-12 16:17:00,
2014-01-12 11:22:00,34.9,28.0,30.09,SSW,200,4.0,8.7,76,0.00,,,0.00,meteobridge,2014-01-12 16:22:00,
2014-01-12 11:27:00,35.1,28.2,30.09,SSW,204,4.0,8.7,76,0.00,,,0.00,meteobridge,2014-01-12 16:27:00,
2014-01-12 11:32:00,35.4,28.6,30.06,SSW,206,5.8,10.1,76,0.00,,,0.00,meteobridge,2014-01-12 16:32:00,
2014-01-12 11:37:00,35.6,28.4,30.06,SE,146,8.1,8.3,75,0.00,,,0.00,meteobridge,2014-01-12 16:37:00,
2014-01-12 11:43:00,35.8,28.6,30.06,SSE,166,8.1,8.1,75,0.00,,,0.00,meteobridge,2014-01-12 16:43:00,
2014-01-12 11:48:00,36.1,28.9,30.06,SSE,149,5.8,8.1,75,0.00,,,0.00,meteobridge,2014-01-12 16:48:00,
2014-01-12 11:53:00,36.1,28.9,30.06,SSE,164,8.1,8.7,75,0.00,,,0.00,meteobridge,2014-01-12 16:53:00,
2014-01-12 11:58:00,36.3,28.8,30.06,SSE,166,10.5,10.5,74,0.00,,,0.00,meteobridge,2014-01-12 16:58:00,
2014-01-12 12:03:00,36.3,28.8,30.03,SSE,154,5.4,8.3,74,0.00,,,0.00,meteobridge,2014-01-12 17:03:00,
2014-01-12 12:08:00,36.7,29.1,30.03,SSE,147,8.3,8.3,74,0.00,,,0.00,meteobridge,2014-01-12 17:08:00,
2014-01-12 12:13:00,36.9,29.3,30.03,SSE,152,3.6,8.3,74,0.00,,,0.00,meteobridge,2014-01-12 17:13:00,
2014-01-12 12:18:00,37.0,29.5,30.03,SSE,149,8.1,8.7,74,0.00,,,0.00,meteobridge,2014-01-12 17:18:00,
2014-01-12 12:23:00,37.2,29.3,30.03,SSE,165,11.0,11.0,73,0.00,,,0.00,meteobridge,2014-01-12 17:23:00,
2014-01-12 12:28:00,37.4,29.5,30.03,South,181,8.3,8.7,73,0.00,,,0.00,meteobridge,2014-01-12 17:28:00,
2014-01-12 12:33:00,37.6,29.7,30.01,SSE,148,5.4,11.0,73,0.00,,,0.00,meteobridge,2014-01-12 17:33:00,
2014-01-12 12:38:00,37.8,29.5,30.01,SSE,164,7.6,8.3,72,0.00,,,0.00,meteobridge,2014-01-12 17:38:00,
2014-01-12 12:43:00,37.9,29.7,30.01,SSE,150,8.1,8.3,72,0.00,,,0.00,meteobridge,2014-01-12 17:43:00,
2014-01-12 12:48:00,38.3,30.0,30.01,SSE,148,5.4,10.5,72,0.00,,,0.00,meteobridge,2014-01-12 17:48:00,
2014-01-12 12:53:00,38.5,30.2,30.01,SSE,154,6.3,8.1,72,0.00,,,0.00,meteobridge,2014-01-12 17:53:00,
2014-01-12 12:58:00,38.8,30.2,30.01,ENE,72,8.1,10.1,71,0.00,,,0.00,meteobridge,2014-01-12 17:58:00,
2014-01-12 13:03:00,39.0,30.4,29.98,SSE,166,5.8,8.7,71,0.00,,,0.00,meteobridge,2014-01-12 18:03:00,
2014-01-12 13:09:00,39.2,30.2,29.98,SSE,167,3.6,8.3,70,0.00,,,0.00,meteobridge,2014-01-12 18:09:00,
2014-01-12 13:14:00,39.4,30.4,29.98,SSE,150,6.3,10.1,70,0.00,,,0.00,meteobridge,2014-01-12 18:14:00,
2014-01-12 13:19:00,39.6,30.6,29.98,SSE,160,8.1,8.1,70,0.00,,,0.00,meteobridge,2014-01-12 18:19:00,
2014-01-12 13:24:00,39.7,30.4,29.98,South,180,5.4,8.7,69,0.00,,,0.00,meteobridge,2014-01-12 18:24:00,
2014-01-12 13:29:00,40.1,30.7,29.98,SSE,163,5.8,6.3,69,0.00,,,0.00,meteobridge,2014-01-12 18:29:00,
2014-01-12 13:34:00,40.3,30.9,29.98,SSE,153,6.3,7.6,69,0.00,,,0.00,meteobridge,2014-01-12 18:34:00,
2014-01-12 13:39:00,40.3,30.6,29.98,SE,146,7.6,9.2,68,0.00,,,0.00,meteobridge,2014-01-12 18:39:00,
2014-01-12 13:44:00,40.8,31.1,29.98,SE,143,5.8,7.2,68,0.00,,,0.00,meteobridge,2014-01-12 18:44:00,
2014-01-12 13:49:00,41.0,31.3,29.98,South,174,5.4,8.1,68,0.00,,,0.00,meteobridge,2014-01-12 18:49:00,
2014-01-12 13:54:00,41.4,31.3,29.98,South,172,6.3,6.7,67,0.00,,,0.00,meteobridge,2014-01-12 18:54:00,
2014-01-12 13:59:00,41.5,31.5,29.98,SE,145,4.0,6.3,67,0.00,,,0.00,meteobridge,2014-01-12 18:59:00,
2014-01-12 14:04:00,41.5,31.5,29.98,SSE,158,5.8,7.6,67,0.00,,,0.00,meteobridge,2014-01-12 19:04:00,
2014-01-12 14:09:00,41.7,31.6,29.98,ESE,123,3.1,8.7,67,0.00,,,0.00,meteobridge,2014-01-12 19:09:00,
2014-01-12 14:15:00,41.7,31.6,29.95,SE,131,4.9,6.3,67,0.00,,,0.00,meteobridge,2014-01-12 19:15:00,
2014-01-12 14:20:00,41.9,31.8,29.95,ESE,103,8.7,8.7,67,0.00,,,0.00,meteobridge,2014-01-12 19:20:00,
2014-01-12 14:25:00,42.3,31.6,29.95,SSE,148,8.1,8.1,66,0.00,,,0.00,meteobridge,2014-01-12 19:25:00,
2014-01-12 14:30:00,42.6,32.0,29.95,ESE,109,6.3,6.3,66,0.00,,,0.00,meteobridge,2014-01-12 19:30:00,
2014-01-12 14:35:00,42.8,31.8,29.95,South,185,5.8,6.3,65,0.00,,,0.00,meteobridge,2014-01-12 19:35:00,
2014-01-12 14:40:00,43.7,33.1,29.95,SSE,161,3.1,6.3,66,0.00,,,0.00,meteobridge,2014-01-12 19:40:00,
2014-01-12 14:45:00,44.2,33.6,29.95,SSE,154,4.0,8.3,66,0.00,,,0.00,meteobridge,2014-01-12 19:45:00,
2014-01-12 14:50:00,44.8,34.2,29.95,SE,133,4.0,5.8,66,0.00,,,0.00,meteobridge,2014-01-12 19:50:00,
2014-01-12 14:55:00,45.0,34.0,29.95,SSE,153,4.0,5.8,65,0.00,,,0.00,meteobridge,2014-01-12 19:55:00,
2014-01-12 15:00:00,45.0,34.0,29.95,SSE,151,6.3,6.3,65,0.00,,,0.00,meteobridge,2014-01-12 20:00:00,
2014-01-12 15:05:00,45.0,33.4,29.95,SSE,152,6.3,8.3,64,0.00,,,0.00,meteobridge,2014-01-12 20:05:00,
2014-01-12 15:10:00,45.3,33.8,29.95,South,173,4.9,8.1,64,0.00,,,0.00,meteobridge,2014-01-12 20:10:00,
2014-01-12 15:15:00,45.3,33.4,29.95,SE,142,5.8,8.7,63,0.00,,,0.00,meteobridge,2014-01-12 20:15:00,
2014-01-12 15:20:00,45.1,32.9,29.95,SSE,160,8.1,10.1,62,0.00,,,0.00,meteobridge,2014-01-12 20:20:00,
2014-01-12 15:25:00,45.1,32.9,29.95,South,181,8.3,8.3,62,0.00,,,0.00,meteobridge,2014-01-12 20:25:00,
2014-01-12 15:30:00,45.3,33.1,29.95,SE,139,4.0,8.1,62,0.00,,,0.00,meteobridge,2014-01-12 20:30:00,
2014-01-12 15:35:00,45.5,32.9,29.95,South,170,8.1,8.1,61,0.00,,,0.00,meteobridge,2014-01-12 20:35:00,
2014-01-12 15:41:00,45.5,32.9,29.95,SSE,159,7.6,10.1,61,0.00,,,0.00,meteobridge,2014-01-12 20:41:00,
2014-01-12 15:46:00,45.5,32.9,29.95,SSE,168,6.7,7.6,61,0.00,,,0.00,meteobridge,2014-01-12 20:46:00,
2014-01-12 15:51:00,45.3,32.7,29.95,SSE,152,6.3,8.7,61,0.00,,,0.00,meteobridge,2014-01-12 20:51:00,
2014-01-12 15:56:00,45.3,32.7,29.95,SSE,147,8.3,8.3,61,0.00,,,0.00,meteobridge,2014-01-12 20:56:00,
2014-01-12 16:01:00,45.3,32.7,29.95,SSW,202,5.4,8.1,61,0.00,,,0.00,meteobridge,2014-01-12 21:01:00,
2014-01-12 16:06:00,45.3,32.2,29.95,SSE,168,4.9,7.6,60,0.00,,,0.00,meteobridge,2014-01-12 21:06:00,
2014-01-12 16:11:00,45.3,32.2,29.95,SSE,168,7.6,8.1,60,0.00,,,0.00,meteobridge,2014-01-12 21:11:00,
2014-01-12 16:16:00,45.3,31.8,29.92,SSE,147,6.3,8.1,59,0.00,,,0.00,meteobridge,2014-01-12 21:16:00,
2014-01-12 16:21:00,45.3,31.5,29.92,South,173,8.1,11.0,58,0.00,,,0.00,meteobridge,2014-01-12 21:21:00,
2014-01-12 16:26:00,45.1,30.7,29.92,SSE,161,10.5,10.5,57,0.00,,,0.00,meteobridge,2014-01-12 21:26:00,
2014-01-12 16:31:00,45.1,30.7,29.92,South,175,6.3,10.1,57,0.00,,,0.00,meteobridge,2014-01-12 21:31:00,
2014-01-12 16:36:00,45.1,30.4,29.92,SSE,163,7.6,10.5,56,0.00,,,0.00,meteobridge,2014-01-12 21:36:00,
2014-01-12 16:41:00,45.1,30.4,29.92,South,180,7.6,11.4,56,0.00,,,0.00,meteobridge,2014-01-12 21:41:00,
2014-01-12 16:46:00,45.0,30.6,29.92,SSE,163,8.1,10.1,57,0.00,,,0.00,meteobridge,2014-01-12 21:46:00,
2014-01-12 16:52:00,44.8,30.6,29.92,South,173,8.7,8.7,57,0.00,,,0.00,meteobridge,2014-01-12 21:52:00,
2014-01-12 16:57:00,44.6,30.4,29.92,SE,133,8.3,10.5,57,0.00,,,0.00,meteobridge,2014-01-12 21:57:00,
2014-01-12 17:02:00,44.6,30.7,29.92,SSE,151,8.7,10.1,58,0.00,,,0.00,meteobridge,2014-01-12 22:02:00,
2014-01-12 17:07:00,44.2,30.4,29.92,SE,139,5.8,8.7,58,0.00,,,0.00,meteobridge,2014-01-12 22:07:00,
2014-01-12 17:12:00,44.2,30.4,29.92,SE,137,5.8,8.7,58,0.00,,,0.00,meteobridge,2014-01-12 22:12:00,
2014-01-12 17:17:00,44.1,30.2,29.92,SSE,162,8.7,8.7,58,0.00,,,0.00,meteobridge,2014-01-12 22:17:00,
2014-01-12 17:22:00,44.1,30.2,29.92,South,175,5.4,10.5,58,0.00,,,0.00,meteobridge,2014-01-12 22:22:00,
2014-01-12 17:27:00,43.9,29.7,29.92,SSE,154,6.3,10.1,57,0.00,,,0.00,meteobridge,2014-01-12 22:27:00,
2014-01-12 17:32:00,43.7,29.5,29.92,SSE,168,5.4,10.5,57,0.00,,,0.00,meteobridge,2014-01-12 22:32:00,
2014-01-12 17:37:00,43.5,29.3,29.92,SSE,157,7.6,8.7,57,0.00,,,0.00,meteobridge,2014-01-12 22:37:00,
2014-01-12 17:42:00,43.3,29.1,29.92,SSE,151,4.0,6.7,57,0.00,,,0.00,meteobridge,2014-01-12 22:42:00,
2014-01-12 17:47:00,43.0,28.8,29.92,SE,126,8.3,8.3,57,0.00,,,0.00,meteobridge,2014-01-12 22:47:00,
2014-01-12 17:52:00,43.0,28.8,29.92,South,176,8.7,8.7,57,0.00,,,0.00,meteobridge,2014-01-12 22:52:00,
2014-01-12 17:58:00,43.0,28.8,29.92,South,173,8.1,10.1,57,0.00,,,0.00,meteobridge,2014-01-12 22:58:00,
2014-01-12 18:03:00,42.8,28.6,29.92,SSE,167,5.8,8.7,57,0.00,,,0.00,meteobridge,2014-01-12 23:03:00,
2014-01-12 18:08:00,42.8,28.6,29.92,SE,143,8.1,8.7,57,0.00,,,0.00,meteobridge,2014-01-12 23:08:00,
2014-01-12 18:13:00,42.6,28.4,29.92,SSE,167,5.8,8.7,57,0.00,,,0.00,meteobridge,2014-01-12 23:13:00,
2014-01-12 18:18:00,42.4,28.2,29.92,SSE,147,10.1,10.5,57,0.00,,,0.00,meteobridge,2014-01-12 23:18:00,
2014-01-12 18:23:00,42.3,28.0,29.92,South,169,7.6,8.7,57,0.00,,,0.00,meteobridge,2014-01-12 23:23:00,
2014-01-12 18:28:00,42.3,28.0,29.92,South,175,8.1,8.7,57,0.00,,,0.00,meteobridge,2014-01-12 23:28:00,
2014-01-12 18:33:00,42.3,28.0,29.92,ESE,113,6.3,7.6,57,0.00,,,0.00,meteobridge,2014-01-12 23:33:00,
2014-01-12 18:38:00,42.1,27.9,29.92,SSE,150,10.5,10.5,57,0.00,,,0.00,meteobridge,2014-01-12 23:38:00,
2014-01-12 18:43:00,42.1,28.4,29.92,SSE,165,8.1,10.5,58,0.00,,,0.00,meteobridge,2014-01-12 23:43:00,
2014-01-12 18:48:00,42.1,28.4,29.92,SSE,152,8.3,11.0,58,0.00,,,0.00,meteobridge,2014-01-12 23:48:00,
2014-01-12 18:53:00,41.9,28.2,29.92,SSW,192,8.3,12.8,58,0.00,,,0.00,meteobridge,2014-01-12 23:53:00,
2014-01-12 18:58:00,41.9,28.6,29.92,South,173,10.5,10.5,59,0.00,,,0.00,meteobridge,2014-01-12 23:58:00,
2014-01-12 19:03:00,41.7,28.4,29.92,SSW,194,11.0,11.0,59,0.00,,,0.00,meteobridge,2014-01-13 00:03:00,
2014-01-12 19:08:00,41.7,28.4,29.92,SSW,199,6.3,10.5,59,0.00,,,0.00,meteobridge,2014-01-13 00:08:00,
2014-01-12 19:13:00,41.7,28.4,29.92,South,174,5.4,8.7,59,0.00,,,0.00,meteobridge,2014-01-13 00:13:00,
2014-01-12 19:19:00,41.5,28.2,29.92,SSE,155,5.8,10.5,59,0.00,,,0.00,meteobridge,2014-01-13 00:19:00,
2014-01-12 19:24:00,41.5,28.2,29.92,SSE,157,9.2,11.0,59,0.00,,,0.00,meteobridge,2014-01-13 00:24:00,
2014-01-12 19:29:00,41.4,28.0,29.92,SE,146,9.6,10.5,59,0.00,,,0.00,meteobridge,2014-01-13 00:29:00,
2014-01-12 19:34:00,41.4,28.6,29.92,SE,143,10.5,11.0,60,0.00,,,0.00,meteobridge,2014-01-13 00:34:00,
2014-01-12 19:39:00,41.4,28.6,29.92,South,175,12.3,12.3,60,0.00,,,0.00,meteobridge,2014-01-13 00:39:00,
2014-01-12 19:44:00,41.4,28.6,29.92,SSE,156,12.8,12.8,60,0.00,,,0.00,meteobridge,2014-01-13 00:44:00,
2014-01-12 19:49:00,41.4,28.6,29.92,SSE,150,8.7,12.8,60,0.00,,,0.00,meteobridge,2014-01-13 00:49:00,
2014-01-12 19:54:00,41.4,28.6,29.92,SSE,163,4.0,11.0,60,0.00,,,0.00,meteobridge,2014-01-13 00:54:00,
2014-01-12 19:59:00,41.4,28.6,29.92,SE,131,10.5,10.5,60,0.00,,,0.00,meteobridge,2014-01-13 00:59:00,
2014-01-12 20:04:00,41.4,28.6,29.89,SE,126,8.7,8.7,60,0.00,,,0.00,meteobridge,2014-01-13 01:04:00,
2014-01-12 20:09:00,41.4,28.6,29.89,SSE,158,6.3,15.0,60,0.00,,,0.00,meteobridge,2014-01-13 01:09:00,
2014-01-12 20:14:00,41.2,28.4,29.89,SE,144,6.3,8.7,60,0.00,,,0.00,meteobridge,2014-01-13 01:14:00,
2014-01-12 20:19:00,41.2,28.4,29.89,SSE,150,11.0,11.0,60,0.00,,,0.00,meteobridge,2014-01-13 01:19:00,
2014-01-12 20:24:00,41.2,28.4,29.89,South,186,10.1,10.5,60,0.00,,,0.00,meteobridge,2014-01-13 01:24:00,
2014-01-12 20:29:00,41.2,28.4,29.89,South,179,10.1,10.1,60,0.00,,,0.00,meteobridge,2014-01-13 01:29:00,
2014-01-12 20:35:00,41.2,28.4,29.89,SSE,163,12.3,12.3,60,0.00,,,0.00,meteobridge,2014-01-13 01:35:00,
2014-01-12 20:40:00,41.2,28.4,29.89,South,169,8.1,10.5,60,0.00,,,0.00,meteobridge,2014-01-13 01:40:00,
2014-01-12 20:45:00,41.2,28.4,29.89,South,181,7.6,14.1,60,0.00,,,0.00,meteobridge,2014-01-13 01:45:00,
2014-01-12 20:50:00,41.2,28.4,29.89,SSE,163,8.1,10.5,60,0.00,,,0.00,meteobridge,2014-01-13 01:50:00,
2014-01-12 20:55:00,41.0,28.2,29.89,SSE,152,8.1,11.9,60,0.00,,,0.00,meteobridge,2014-01-13 01:55:00,
2014-01-12 21:00:00,41.2,28.8,29.86,South,181,10.1,12.8,61,0.00,,,0.00,meteobridge,2014-01-13 02:00:00,
2014-01-12 21:05:00,41.2,28.8,29.86,SSE,149,8.1,12.8,61,0.00,,,0.00,meteobridge,2014-01-13 02:05:00,
2014-01-12 21:10:00,41.2,28.8,29.86,South,176,10.5,14.1,61,0.00,,,0.00,meteobridge,2014-01-13 02:10:00,
2014-01-12 21:15:00,41.4,28.6,29.86,South,179,7.6,10.5,60,0.00,,,0.00,meteobridge,2014-01-13 02:15:00,
2014-01-12 21:20:00,41.2,28.4,29.86,SSE,168,10.1,13.2,60,0.00,,,0.00,meteobridge,2014-01-13 02:20:00,
2014-01-12 21:25:00,41.2,28.8,29.86,South,178,3.6,9.6,61,0.00,,,0.00,meteobridge,2014-01-13 02:25:00,
2014-01-12 21:30:00,41.2,28.8,29.89,South,172,6.3,8.7,61,0.00,,,0.00,meteobridge,2014-01-13 02:30:00,
2014-01-12 21:35:00,41.0,28.6,29.89,South,190,10.1,10.1,61,0.00,,,0.00,meteobridge,2014-01-13 02:35:00,
2014-01-12 21:40:00,41.0,28.6,29.89,SSW,199,6.3,7.6,61,0.00,,,0.00,meteobridge,2014-01-13 02:40:00,
2014-01-12 21:45:00,41.0,28.6,29.89,SSE,166,5.4,6.7,61,0.00,,,0.00,meteobridge,2014-01-13 02:45:00,
2014-01-12 21:50:00,41.0,28.6,29.89,SSE,155,5.4,9.6,61,0.00,,,0.00,meteobridge,2014-01-13 02:50:00,
2014-01-12 21:56:00,41.0,28.6,29.89,South,183,5.4,5.8,61,0.00,,,0.00,meteobridge,2014-01-13 02:56:00,
2014-01-12 22:01:00,41.0,28.6,29.89,South,186,5.8,7.2,61,0.00,,,0.00,meteobridge,2014-01-13 03:01:00,
2014-01-12 22:06:00,41.2,28.8,29.89,SSW,196,4.0,7.6,61,0.00,,,0.00,meteobridge,2014-01-13 03:06:00,
2014-01-12 22:11:00,41.2,28.8,29.89,SSW,193,6.3,8.1,61,0.00,,,0.00,meteobridge,2014-01-13 03:11:00,
2014-01-12 22:16:00,41.2,28.8,29.89,South,187,4.0,9.2,61,0.00,,,0.00,meteobridge,2014-01-13 03:16:00,
2014-01-12 22:21:00,41.2,28.4,29.89,SSE,167,8.1,8.3,60,0.00,,,0.00,meteobridge,2014-01-13 03:21:00,
2014-01-12 22:26:00,41.2,28.4,29.89,SSW,202,4.9,8.7,60,0.00,,,0.00,meteobridge,2014-01-13 03:26:00,
2014-01-12 22:31:00,41.2,28.4,29.89,SSE,168,6.3,8.3,60,0.00,,,0.00,meteobridge,2014-01-13 03:31:00,
2014-01-12 22:36:00,41.2,28.4,29.89,SSW,202,5.8,7.6,60,0.00,,,0.00,meteobridge,2014-01-13 03:36:00,
2014-01-12 22:41:00,41.2,28.4,29.89,South,190,5.4,5.8,60,0.00,,,0.00,meteobridge,2014-01-13 03:41:00,
2014-01-12 22:46:00,41.0,28.2,29.89,SSW,213,3.6,5.4,60,0.00,,,0.00,meteobridge,2014-01-13 03:46:00,
2014-01-12 22:51:00,41.0,28.2,29.89,SW,228,4.0,4.9,60,0.00,,,0.00,meteobridge,2014-01-13 03:51:00,
2014-01-12 22:56:00,40.6,27.9,29.89,SSW,212,2.7,4.0,60,0.00,,,0.00,meteobridge,2014-01-13 03:56:00,
2014-01-12 23:02:00,40.6,27.9,29.89,SW,215,3.6,3.6,60,0.00,,,0.00,meteobridge,2014-01-13 04:02:00,
2014-01-12 23:07:00,40.5,28.0,29.89,SSE,165,4.0,5.4,61,0.00,,,0.00,meteobridge,2014-01-13 04:07:00,
2014-01-12 23:12:00,40.3,27.9,29.89,SSW,197,5.8,5.8,61,0.00,,,0.00,meteobridge,2014-01-13 04:12:00,
2014-01-12 23:17:00,40.3,27.9,29.92,South,189,5.4,6.3,61,0.00,,,0.00,meteobridge,2014-01-13 04:17:00,
2014-01-12 23:22:00,40.3,27.9,29.92,SSE,157,5.4,7.6,61,0.00,,,0.00,meteobridge,2014-01-13 04:22:00,
2014-01-12 23:27:00,40.3,27.9,29.92,SSW,213,5.8,6.3,61,0.00,,,0.00,meteobridge,2014-01-13 04:27:00,
2014-01-12 23:32:00,40.3,27.9,29.89,South,184,6.3,8.1,61,0.00,,,0.00,meteobridge,2014-01-13 04:32:00,
2014-01-12 23:37:00,40.3,27.9,29.89,SSW,202,5.8,8.3,61,0.00,,,0.00,meteobridge,2014-01-13 04:37:00,
2014-01-12 23:42:00,40.5,28.0,29.89,SSW,194,5.8,8.3,61,0.00,,,0.00,meteobridge,2014-01-13 04:42:00,
2014-01-12 23:47:00,40.5,27.7,29.89,South,180,5.8,6.3,60,0.00,,,0.00,meteobridge,2014-01-13 04:47:00,
2014-01-12 23:52:00,40.5,27.7,29.89,SSW,195,5.8,8.1,60,0.00,,,0.00,meteobridge,2014-01-13 04:52:00,
2014-01-12 23:57:00,40.6,27.9,29.89,SSE,147,6.3,8.3,60,0.00,,,0.00,meteobridge,2014-01-13 04:57:00,